Time;durP1;ratioP1;P1;durP2;ratioP2;P2;SDS_P1;SDS_P2;PMS_P1;PMS_P2;Temp;Humidity;BMP_temperature;BMP_pressure;BME280_temperature;BME280_humidity;BME280_pressure;Samples;Min_cycle;Max_cycle;Signal;HPM_P1;HPM_P2
2021/06/15 00:01:29;;;;;;;6.80;6.10;;;18.40;88.30;;;;;;5051844;28;20037;-81
2021/06/15 00:03:55;;;;;;;9.20;6.40;;;18.40;88.60;;;;;;5050000;28;20041;-81
2021/06/15 00:06:21;;;;;;;7.20;6.03;;;18.50;88.80;;;;;;5048424;28;20076;-81
2021/06/15 00:08:46;;;;;;;8.15;6.38;;;18.40;88.70;;;;;;5054085;28;20021;-80
2021/06/15 00:11:12;;;;;;;7.30;6.50;;;18.50;88.70;;;;;;5050941;28;20029;-81
2021/06/15 00:13:38;;;;;;;6.47;5.85;;;18.40;88.90;;;;;;5046133;28;20025;-82
2021/06/15 00:16:04;;;;;;;6.90;6.20;;;18.40;88.70;;;;;;5048955;28;20063;-81
2021/06/15 00:18:30;;;;;;;6.93;6.20;;;18.40;88.80;;;;;;5048477;28;20055;-82
2021/06/15 00:20:56;;;;;;;7.90;6.43;;;18.40;89.20;;;;;;5052756;28;20131;-81
2021/06/15 00:23:22;;;;;;;7.47;6.22;;;18.40;89.20;;;;;;5049152;28;20432;-81
2021/06/15 00:25:47;;;;;;;8.02;5.93;;;18.40;89.20;;;;;;5046744;28;20048;-82
2021/06/15 00:28:13;;;;;;;7.63;5.85;;;18.40;89.80;;;;;;5047515;28;20063;-81
2021/06/15 00:30:39;;;;;;;6.78;6.07;;;18.40;89.10;;;;;;5044829;28;20021;-81
2021/06/15 00:33:05;;;;;;;6.95;5.82;;;18.40;89.10;;;;;;5047728;28;20033;-81
2021/06/15 00:35:31;;;;;;;6.95;5.65;;;18.30;89.10;;;;;;5045510;28;20048;-81
2021/06/15 00:37:56;;;;;;;7.30;6.10;;;18.30;89.20;;;;;;5048606;28;20102;-81
2021/06/15 00:40:23;;;;;;;7.93;6.47;;;18.20;88.90;;;;;;5048237;28;20013;-81
2021/06/15 00:42:48;;;;;;;7.47;6.60;;;18.20;88.70;;;;;;5048571;28;20060;-81
2021/06/15 00:45:16;;;;;;;8.05;6.07;;;18.10;88.70;;;;;;5064405;28;20486;-81
2021/06/15 00:47:46;;;;;;;6.97;6.03;;;18.10;89.00;;;;;;5045256;28;20029;-82
2021/06/15 00:50:13;;;;;;;8.95;6.50;;;18.10;89.00;;;;;;5047540;28;20035;-81
2021/06/15 00:52:39;;;;;;;6.95;6.20;;;18.00;89.10;;;;;;5044705;28;20382;-81
2021/06/15 00:55:05;;;;;;;9.52;6.25;;;18.00;89.20;;;;;;5044925;28;24834;-81
2021/06/15 00:57:31;;;;;;;7.88;6.30;;;17.90;89.30;;;;;;5045651;28;20051;-81
2021/06/15 00:59:58;;;;;;;7.35;6.53;;;17.90;89.40;;;;;;5045935;28;20025;-80
2021/06/15 01:02:26;;;;;;;7.55;6.28;;;17.80;89.50;;;;;;5044004;28;20039;-80
2021/06/15 01:04:52;;;;;;;7.85;6.35;;;17.80;89.60;;;;;;5047564;28;20017;-80
2021/06/15 01:07:44;;;;;;;8.63;6.95;;;17.80;89.50;;;;;;5047265;28;20024;-81
2021/06/15 01:10:42;;;;;;;8.27;7.07;;;17.70;89.60;;;;;;5046251;28;20036;-80
2021/06/15 01:13:32;;;;;;;9.00;6.93;;;17.70;89.90;;;;;;5048209;28;20017;-80
2021/06/15 01:16:10;;;;;;;7.25;6.10;;;17.60;90.00;;;;;;5045216;28;20040;-81
2021/06/15 01:18:40;;;;;;;7.18;6.18;;;17.60;89.90;;;;;;5045316;28;20061;-81
2021/06/15 01:21:12;;;;;;;8.57;7.20;;;17.60;90.20;;;;;;5045295;28;20103;-81
2021/06/15 01:24:03;;;;;;;7.78;6.97;;;17.50;89.70;;;;;;5062897;28;20059;-80
2021/06/15 01:26:57;;;;;;;8.63;7.13;;;17.50;89.80;;;;;;5045355;28;20029;-81
2021/06/15 01:29:35;;;;;;;8.50;6.90;;;17.40;90.00;;;;;;5047533;28;20036;-80
2021/06/15 01:32:15;;;;;;;8.75;6.68;;;17.40;90.30;;;;;;5048327;28;20037;-81
2021/06/15 01:34:43;;;;;;;9.20;7.07;;;17.30;90.30;;;;;;5029976;28;20085;-82
2021/06/15 01:37:25;;;;;;;8.43;6.93;;;17.30;90.30;;;;;;5043475;28;20025;-82
2021/06/15 01:40:04;;;;;;;8.85;6.68;;;17.30;90.20;;;;;;5046256;28;20112;-81
2021/06/15 01:42:35;;;;;;;8.40;6.13;;;17.30;90.30;;;;;;5045488;28;20029;-82
2021/06/15 01:45:15;;;;;;;10.02;7.03;;;17.30;90.40;;;;;;5063125;28;20036;-82
2021/06/15 01:47:49;;;;;;;8.48;7.18;;;17.30;90.60;;;;;;5063934;28;20429;-82
2021/06/15 01:50:19;;;;;;;8.55;7.35;;;17.30;90.40;;;;;;5047335;28;20052;-81
2021/06/15 01:52:47;;;;;;;9.85;8.25;;;17.20;90.50;;;;;;5044350;28;20402;-82
2021/06/15 01:55:15;;;;;;;9.00;8.10;;;17.20;90.60;;;;;;5044550;28;20032;-81
2021/06/15 01:57:42;;;;;;;9.70;8.13;;;17.20;90.80;;;;;;5044530;28;20123;-81
2021/06/15 02:00:12;;;;;;;8.45;7.35;;;17.20;90.80;;;;;;5045940;28;20044;-82
2021/06/15 02:02:41;;;;;;;8.32;7.13;;;17.20;90.80;;;;;;5043149;28;20033;-82
2021/06/15 02:05:10;;;;;;;10.65;7.47;;;17.20;90.80;;;;;;5046459;28;20025;-82
2021/06/15 02:07:42;;;;;;;8.45;7.25;;;17.20;90.80;;;;;;5045343;28;20035;-81
2021/06/15 02:10:12;;;;;;;11.82;8.00;;;17.20;90.80;;;;;;5046818;28;20447;-82
2021/06/15 02:12:43;;;;;;;8.88;7.75;;;17.20;91.10;;;;;;5044062;28;20032;-82
2021/06/15 02:15:11;;;;;;;9.80;8.02;;;17.30;91.30;;;;;;5045622;28;20043;-82
2021/06/15 02:17:41;;;;;;;9.70;7.68;;;17.30;91.50;;;;;;5047052;28;20068;-82
2021/06/15 02:20:10;;;;;;;9.25;8.18;;;17.40;91.60;;;;;;5041849;28;20024;-83
2021/06/15 02:22:36;;;;;;;8.90;7.50;;;17.50;91.70;;;;;;5042288;28;20382;-83
2021/06/15 02:25:04;;;;;;;9.40;8.25;;;17.50;91.70;;;;;;5044971;28;20387;-82
2021/06/15 02:27:29;;;;;;;8.85;7.95;;;17.60;91.80;;;;;;5045449;28;20390;-82
2021/06/15 02:29:57;;;;;;;9.77;8.77;;;17.70;91.80;;;;;;5045226;28;20028;-82
2021/06/15 02:32:36;;;;;;;9.93;8.55;;;17.70;91.70;;;;;;5042657;28;20500;-82
2021/06/15 02:35:06;;;;;;;9.88;8.73;;;17.80;91.60;;;;;;5045536;28;20090;-82
2021/06/15 02:37:51;;;;;;;9.15;8.25;;;17.80;91.50;;;;;;5044988;28;20039;-82
2021/06/15 02:40:18;;;;;;;10.73;8.75;;;17.90;91.60;;;;;;5047076;28;20029;-82
2021/06/15 02:42:45;;;;;;;11.10;8.65;;;18.00;91.80;;;;;;5047206;28;20027;-82
2021/06/15 02:45:14;;;;;;;10.32;7.97;;;18.00;91.80;;;;;;5046272;28;20040;-82
2021/06/15 02:47:44;;;;;;;9.20;7.75;;;18.10;91.80;;;;;;5043339;28;20078;-82
2021/06/15 02:50:14;;;;;;;9.63;8.05;;;18.20;91.80;;;;;;5045452;28;20355;-82
2021/06/15 02:53:03;;;;;;;10.45;8.80;;;18.20;91.70;;;;;;5045637;28;20056;-82
2021/06/15 02:55:37;;;;;;;12.70;8.57;;;18.30;91.80;;;;;;5044359;28;20070;-81
2021/06/15 02:58:04;;;;;;;9.70;8.70;;;18.40;91.70;;;;;;5045875;28;20073;-81
2021/06/15 03:00:30;;;;;;;15.45;9.40;;;18.50;92.00;;;;;;5046320;28;20445;-81
2021/06/15 03:02:56;;;;;;;9.55;8.38;;;18.60;91.60;;;;;;5059276;28;20088;-82
2021/06/15 03:05:22;;;;;;;9.43;8.43;;;18.60;91.50;;;;;;5045034;28;20041;-82
2021/06/15 03:07:49;;;;;;;8.48;7.68;;;18.70;91.50;;;;;;5045557;28;20520;-82
2021/06/15 03:10:17;;;;;;;10.52;8.70;;;18.80;91.40;;;;;;5044764;28;20025;-81
2021/06/15 03:13:02;;;;;;;9.70;8.40;;;18.90;91.30;;;;;;5060208;28;20029;-81
2021/06/15 03:15:58;;;;;;;8.80;7.70;;;18.90;91.20;;;;;;5044237;28;20027;-82
2021/06/15 03:18:28;;;;;;;8.88;7.82;;;19.00;91.10;;;;;;5043691;28;20032;-82
2021/06/15 03:21:01;;;;;;;8.98;8.07;;;19.00;91.00;;;;;;5044384;28;20095;-81
2021/06/15 03:23:44;;;;;;;9.27;8.38;;;19.10;91.00;;;;;;5058265;28;20029;-82
2021/06/15 03:26:14;;;;;;;9.27;8.38;;;19.20;91.00;;;;;;5045272;28;20378;-82
2021/06/15 03:28:45;;;;;;;9.07;7.78;;;19.30;90.90;;;;;;5044328;28;20048;-82
2021/06/15 03:31:18;;;;;;;9.93;8.48;;;19.30;90.80;;;;;;5043459;28;20032;-81
2021/06/15 03:33:47;;;;;;;;;;;19.40;90.70;;;;;;5043763;28;20064;-82
2021/06/15 03:36:13;;;;;;;9.20;7.97;;;19.30;90.50;;;;;;5061276;28;19959;-82
2021/06/15 03:38:41;;;;;;;9.40;7.85;;;19.40;90.50;;;;;;5044645;28;20567;-81
2021/06/15 03:41:09;;;;;;;9.50;8.15;;;19.50;90.50;;;;;;5042323;28;20044;-82
2021/06/15 03:43:38;;;;;;;8.90;8.00;;;19.50;90.40;;;;;;5042042;28;20471;-82
2021/06/15 03:46:09;;;;;;;9.35;8.32;;;19.60;90.30;;;;;;5045284;28;20103;-82
2021/06/15 03:48:37;;;;;;;9.73;8.10;;;19.70;90.20;;;;;;5043233;28;20565;-82
2021/06/15 03:51:04;;;;;;;8.75;7.85;;;19.70;90.10;;;;;;5041769;28;20204;-82
2021/06/15 03:53:33;;;;;;;10.70;7.85;;;19.80;90.00;;;;;;5043698;28;20486;-82
2021/06/15 03:56:01;;;;;;;10.38;8.40;;;19.90;90.00;;;;;;5043630;28;20163;-82
2021/06/15 03:58:28;;;;;;;9.13;7.90;;;19.90;89.70;;;;;;5043010;28;20536;-82
2021/06/15 04:00:55;;;;;;;9.10;8.15;;;20.00;89.40;;;;;;5060745;28;20167;-81
2021/06/15 04:03:23;;;;;;;8.38;7.57;;;20.10;89.30;;;;;;5060722;28;20492;-84
2021/06/15 04:05:51;;;;;;;9.63;8.23;;;20.10;89.00;;;;;;5044372;28;20167;-81
2021/06/15 04:08:19;;;;;;;8.82;7.88;;;20.20;88.90;;;;;;5042790;28;20029;-81
2021/06/15 04:10:49;;;;;;;8.93;8.02;;;20.30;88.70;;;;;;5042893;28;20506;-81
2021/06/15 04:13:17;;;;;;;8.90;8.00;;;20.40;88.50;;;;;;5042828;28;20032;-81
2021/06/15 04:15:44;;;;;;;8.07;7.28;;;20.40;88.00;;;;;;5026687;28;20459;-81
2021/06/15 04:18:14;;;;;;;9.45;8.45;;;20.50;87.60;;;;;;5042664;28;20028;-81
2021/06/15 04:20:41;;;;;;;12.93;11.50;;;20.60;87.20;;;;;;5043995;28;20044;-82
2021/06/15 04:23:09;;;;;;;10.75;9.65;;;20.60;87.00;;;;;;5040730;28;20541;-82
2021/06/15 04:25:41;;;;;;;11.63;9.10;;;20.70;86.60;;;;;;5043489;28;20029;-82
2021/06/15 04:28:08;;;;;;;;;;;20.70;86.20;;;;;;5040290;28;20021;-81
2021/06/15 04:30:35;;;;;;;9.20;8.30;;;20.70;86.20;;;;;;5043576;28;19923;-81
2021/06/15 04:33:03;;;;;;;10.00;9.00;;;20.80;86.10;;;;;;5041167;28;20148;-82
2021/06/15 04:35:32;;;;;;;8.90;8.00;;;20.80;85.80;;;;;;5040958;28;20033;-82
2021/06/15 04:38:06;;;;;;;8.98;8.07;;;20.80;85.90;;;;;;5042902;28;20453;-81
2021/06/15 04:40:39;;;;;;;8.98;7.95;;;20.90;85.70;;;;;;5045238;28;20056;-82
2021/06/15 04:43:28;;;;;;;9.05;8.13;;;21.00;85.50;;;;;;5044176;28;20040;-82
2021/06/15 04:46:18;;;;;;;8.73;7.85;;;21.10;85.00;;;;;;5043031;28;20032;-82
2021/06/15 04:48:49;;;;;;;9.57;8.65;;;21.20;84.60;;;;;;5060227;28;20036;-82
2021/06/15 04:51:20;;;;;;;9.80;8.73;;;21.30;84.30;;;;;;5044315;28;20025;-82
2021/06/15 04:53:46;;;;;;;9.90;8.85;;;21.30;83.80;;;;;;5041044;28;20021;-83
2021/06/15 04:56:15;;;;;;;9.98;8.98;;;21.40;83.60;;;;;;5042488;28;20057;-83
2021/06/15 04:58:42;;;;;;;9.65;8.75;;;21.40;83.00;;;;;;5042431;28;20116;-83
2021/06/15 05:01:10;;;;;;;9.40;8.48;;;21.40;82.50;;;;;;5045835;28;20484;-83
2021/06/15 05:03:38;;;;;;;9.52;8.60;;;21.40;82.30;;;;;;5044429;28;20100;-83
2021/06/15 05:06:06;;;;;;;8.73;7.82;;;21.40;81.80;;;;;;5043065;28;20029;-83
2021/06/15 05:08:59;;;;;;;9.60;7.95;;;21.50;82.10;;;;;;5048181;28;20464;-83
2021/06/15 05:11:27;;;;;;;9.52;8.52;;;21.60;81.90;;;;;;5044247;28;20033;-84
2021/06/15 05:13:55;;;;;;;9.90;8.90;;;21.60;81.70;;;;;;5045671;28;20134;-84
2021/06/15 05:16:23;;;;;;;9.82;8.82;;;21.60;81.40;;;;;;5045022;28;20080;-82
2021/06/15 05:18:49;;;;;;;9.80;8.57;;;21.70;81.60;;;;;;5044148;28;20051;-81
2021/06/15 05:21:22;;;;;;;9.35;8.35;;;21.70;81.60;;;;;;5045105;28;20036;-82
2021/06/15 05:24:05;;;;;;;10.68;7.97;;;21.80;81.50;;;;;;5045721;28;20028;-83
2021/06/15 05:26:32;;;;;;;8.65;7.85;;;21.80;81.30;;;;;;5048176;28;20040;-83
2021/06/15 05:28:58;;;;;;;8.93;8.02;;;21.90;81.10;;;;;;5045709;28;20032;-83
2021/06/15 05:31:23;;;;;;;12.23;9.07;;;22.00;81.30;;;;;;5043447;28;20029;-83
2021/06/15 05:33:49;;;;;;;9.95;8.95;;;22.10;80.60;;;;;;5042955;28;20036;-83
2021/06/15 05:36:15;;;;;;;10.27;9.18;;;22.20;80.40;;;;;;5044444;28;20028;-83
2021/06/15 05:38:41;;;;;;;9.88;8.98;;;22.20;79.80;;;;;;5043212;28;20666;-83
2021/06/15 05:41:07;;;;;;;9.13;8.02;;;22.30;79.60;;;;;;5046419;28;20432;-83
2021/06/15 05:43:33;;;;;;;9.43;8.25;;;22.30;79.60;;;;;;5045601;28;20029;-83
2021/06/15 05:45:58;;;;;;;9.93;8.93;;;22.50;79.50;;;;;;5041113;28;20062;-83
2021/06/15 05:48:24;;;;;;;9.48;8.48;;;22.50;78.90;;;;;;5041923;28;20033;-82
2021/06/15 05:50:50;;;;;;;8.90;7.90;;;22.60;78.80;;;;;;5039642;28;20031;-82
2021/06/15 05:53:16;;;;;;;8.75;7.53;;;22.60;78.90;;;;;;5030074;28;20063;-82
2021/06/15 05:55:42;;;;;;;10.75;8.88;;;22.70;78.80;;;;;;5039463;28;20033;-82
2021/06/15 05:58:09;;;;;;;12.48;8.77;;;22.70;78.60;;;;;;5033540;28;20045;-80
2021/06/15 06:00:35;;;;;;;11.05;9.95;;;22.80;78.50;;;;;;5029027;28;20052;-81
2021/06/15 06:03:01;;;;;;;10.75;9.65;;;22.90;77.50;;;;;;5028292;28;20449;-81
2021/06/15 06:08:05;;;;;;;10.23;9.18;;;23.00;77.20;;;;;;5027421;28;20030;-81
2021/06/15 06:10:35;;;;;;;9.40;8.43;;;23.00;77.50;;;;;;5030465;28;20040;-82
2021/06/15 06:13:02;;;;;;;11.60;10.48;;;23.10;77.70;;;;;;5034585;28;20036;-82
2021/06/15 06:15:28;;;;;;;10.18;9.10;;;23.20;76.60;;;;;;5029251;28;20763;-83
2021/06/15 06:17:56;;;;;;;11.85;9.40;;;23.30;76.80;;;;;;5018695;28;20056;-81
2021/06/15 06:20:22;;;;;;;9.98;9.02;;;23.30;76.50;;;;;;5024506;28;20528;-81
2021/06/15 06:22:48;;;;;;;9.23;8.30;;;23.40;76.40;;;;;;5033549;28;20033;-82
2021/06/15 06:25:15;;;;;;;8.30;7.50;;;23.40;76.50;;;;;;5034789;28;20033;-81
2021/06/15 06:27:42;;;;;;;9.32;8.32;;;23.50;77.20;;;;;;5023231;28;21802;-82
2021/06/15 06:30:17;;;;;;;9.57;8.68;;;23.60;76.40;;;;;;5021636;28;20410;-81
2021/06/15 06:32:43;;;;;;;11.05;9.00;;;23.70;75.50;;;;;;5017556;28;20047;-80
2021/06/15 06:35:09;;;;;;;10.68;9.35;;;23.80;75.60;;;;;;5017330;28;20034;-82
2021/06/15 06:37:35;;;;;;;9.23;8.30;;;23.80;75.50;;;;;;5039634;28;20120;-80
2021/06/15 06:40:02;;;;;;;10.68;8.70;;;23.90;75.60;;;;;;5027556;28;20039;-79
2021/06/15 06:42:28;;;;;;;11.75;9.55;;;24.00;75.20;;;;;;5018074;28;20082;-80
2021/06/15 06:44:54;;;;;;;9.98;8.98;;;24.00;74.50;;;;;;5015497;28;20275;-82
2021/06/15 06:47:19;;;;;;;8.68;7.88;;;24.00;74.80;;;;;;5022361;28;20029;-80
2021/06/15 06:49:45;;;;;;;9.15;8.25;;;24.10;75.20;;;;;;5029706;28;20108;-81
2021/06/15 06:52:11;;;;;;;8.90;8.10;;;24.20;75.00;;;;;;5026061;28;20135;-81
2021/06/15 06:54:36;;;;;;;9.30;8.40;;;24.30;74.30;;;;;;5024551;28;20024;-82
2021/06/15 06:57:03;;;;;;;9.18;8.27;;;24.40;74.40;;;;;;5026276;28;20118;-80
2021/06/15 06:59:28;;;;;;;8.88;8.07;;;24.50;74.30;;;;;;5026373;28;20029;-82
2021/06/15 07:01:54;;;;;;;9.00;7.78;;;24.60;73.80;;;;;;5011415;28;20033;-84
2021/06/15 07:04:20;;;;;;;9.00;8.07;;;24.70;73.90;;;;;;5021034;28;20037;-83
2021/06/15 07:06:46;;;;;;;9.13;8.20;;;24.80;73.50;;;;;;5015887;28;20120;-83
2021/06/15 07:09:13;;;;;;;8.95;8.15;;;24.90;73.00;;;;;;5022449;28;20032;-84
2021/06/15 07:11:40;;;;;;;8.35;7.50;;;24.90;72.50;;;;;;5024387;28;20052;-84
2021/06/15 07:14:06;;;;;;;8.35;7.43;;;25.00;72.20;;;;;;5013721;28;20037;-84
2021/06/15 07:16:31;;;;;;;8.35;7.55;;;25.10;72.30;;;;;;5032792;28;20387;-83
2021/06/15 07:18:57;;;;;;;8.95;8.05;;;25.20;71.80;;;;;;5018337;28;20024;-84
2021/06/15 07:21:24;;;;;;;8.65;7.75;;;25.20;70.80;;;;;;5021698;28;20946;-83
2021/06/15 07:23:52;;;;;;;8.70;7.60;;;25.20;70.80;;;;;;5024453;28;20111;-84
2021/06/15 07:26:21;;;;;;;10.65;8.10;;;25.30;70.90;;;;;;5021054;28;20116;-84
2021/06/15 07:28:47;;;;;;;9.43;7.85;;;25.40;70.00;;;;;;5017140;28;20135;-82
2021/06/15 07:31:12;;;;;;;11.32;7.63;;;25.40;69.90;;;;;;5016279;28;20033;-83
2021/06/15 07:33:38;;;;;;;8.20;7.40;;;25.40;70.00;;;;;;5009231;28;20049;-83
2021/06/15 07:36:05;;;;;;;8.27;7.18;;;25.50;70.00;;;;;;5005954;28;20209;-85
2021/06/15 07:38:30;;;;;;;7.53;6.82;;;25.50;70.30;;;;;;5007660;28;20114;-83
2021/06/15 07:40:57;;;;;;;6.80;6.20;;;25.70;70.30;;;;;;5016976;28;20055;-84
2021/06/15 07:43:23;;;;;;;8.48;6.50;;;25.80;70.00;;;;;;5012949;28;20655;-82
2021/06/15 07:45:49;;;;;;;7.43;6.22;;;25.90;69.30;;;;;;5021406;28;20122;-84
2021/06/15 07:48:14;;;;;;;6.30;5.70;;;25.90;68.80;;;;;;5018319;28;20029;-85
2021/06/15 07:50:40;;;;;;;6.78;6.07;;;25.90;68.80;;;;;;5016411;28;20035;-83
2021/06/15 07:53:06;;;;;;;6.22;5.63;;;26.00;68.60;;;;;;5032253;28;20039;-82
2021/06/15 07:55:32;;;;;;;6.63;5.88;;;26.10;68.50;;;;;;5027602;28;20044;-82
2021/06/15 07:57:58;;;;;;;6.72;6.03;;;26.10;67.60;;;;;;5016361;28;20502;-82
2021/06/15 08:00:23;;;;;;;6.93;5.85;;;26.20;67.60;;;;;;5035188;28;20029;-83
2021/06/15 08:02:50;;;;;;;5.55;5.05;;;26.20;66.60;;;;;;5021051;28;21099;-83
2021/06/15 08:05:16;;;;;;;5.95;5.35;;;26.20;66.30;;;;;;5019528;28;20056;-83
2021/06/15 08:07:42;;;;;;;5.00;4.55;;;26.20;66.60;;;;;;5015214;28;20032;-82
2021/06/15 08:10:08;;;;;;;5.90;4.35;;;26.40;66.60;;;;;;5009514;28;20736;-82
2021/06/15 08:12:34;;;;;;;5.00;4.50;;;26.50;66.20;;;;;;5006892;28;20033;-83
2021/06/15 08:15:00;;;;;;;5.55;4.57;;;26.70;65.90;;;;;;5006793;28;20622;-83
2021/06/15 08:17:25;;;;;;;5.82;4.45;;;26.80;66.00;;;;;;5010195;28;20705;-83
2021/06/15 08:19:51;;;;;;;6.35;4.45;;;26.80;64.50;;;;;;5016169;28;20358;-82
2021/06/15 08:22:17;;;;;;;5.88;5.10;;;26.90;64.80;;;;;;5006201;28;20033;-80
2021/06/15 08:24:43;;;;;;;5.75;4.35;;;27.00;64.80;;;;;;5028322;28;20033;-82
2021/06/15 08:27:09;;;;;;;5.20;4.70;;;27.20;64.40;;;;;;5015273;28;20029;-82
2021/06/15 08:29:35;;;;;;;5.63;4.63;;;27.20;63.20;;;;;;5019590;28;20025;-82
2021/06/15 08:32:01;;;;;;;5.85;5.25;;;27.20;63.00;;;;;;5020150;28;20029;-81
2021/06/15 08:34:26;;;;;;;6.35;4.93;;;27.20;62.70;;;;;;5010627;28;20043;-82
2021/06/15 08:36:52;;;;;;;6.10;4.40;;;27.30;63.00;;;;;;5015562;28;20033;-81
2021/06/15 08:39:21;;;;;;;5.60;5.00;;;27.30;63.10;;;;;;5017938;28;20037;-84
2021/06/15 08:41:47;;;;;;;5.20;4.57;;;27.40;62.80;;;;;;5016857;28;20033;-82
2021/06/15 08:44:13;;;;;;;6.53;5.07;;;27.50;63.00;;;;;;5012830;28;20897;-81
2021/06/15 08:46:39;;;;;;;13.57;4.63;;;27.50;62.40;;;;;;5012430;28;20024;-83
2021/06/15 08:49:06;;;;;;;5.70;4.90;;;27.60;62.40;;;;;;5023445;28;20036;-81
2021/06/15 08:51:33;;;;;;;5.35;4.70;;;27.70;61.70;;;;;;5023273;28;20162;-82
2021/06/15 08:54:05;;;;;;;7.00;5.00;;;27.70;62.00;;;;;;5024687;28;20030;-82
2021/06/15 08:56:32;;;;;;;5.57;4.97;;;27.70;62.10;;;;;;4998927;28;20667;-82
2021/06/15 08:59:18;;;;;;;5.93;4.65;;;27.80;61.00;;;;;;5008415;28;20293;-82
2021/06/15 09:01:45;;;;;;;7.57;5.30;;;27.80;61.40;;;;;;5025061;28;20039;-83
2021/06/15 09:04:11;;;;;;;5.60;5.10;;;27.90;61.40;;;;;;5027413;28;20064;-82
2021/06/15 09:06:37;;;;;;;6.88;5.25;;;28.00;61.10;;;;;;5026216;28;20033;-82
2021/06/15 09:09:05;;;;;;;5.78;4.90;;;28.00;60.70;;;;;;5022477;28;20026;-83
2021/06/15 09:11:56;;;;;;;4.97;4.47;;;28.00;60.40;;;;;;5037492;28;20041;-83
2021/06/15 09:14:44;;;;;;;5.60;4.60;;;28.00;59.90;;;;;;5020092;28;20029;-82
2021/06/15 09:17:31;;;;;;;6.05;4.70;;;28.10;60.20;;;;;;5025523;28;20049;-83
2021/06/15 09:20:16;;;;;;;5.75;4.65;;;28.10;60.20;;;;;;5029215;28;20041;-82
2021/06/15 09:22:42;;;;;;;5.30;4.80;;;28.20;60.00;;;;;;5026329;28;20605;-82
2021/06/15 09:25:12;;;;;;;4.93;4.38;;;28.30;59.60;;;;;;5020469;28;20021;-83
2021/06/15 09:27:39;;;;;;;4.80;4.40;;;28.40;59.50;;;;;;5017649;28;20033;-83
2021/06/15 09:30:08;;;;;;;5.10;4.35;;;28.40;58.90;;;;;;5019009;28;20033;-84
2021/06/15 09:32:39;;;;;;;4.75;4.30;;;28.40;59.00;;;;;;5014863;28;20033;-83
2021/06/15 09:35:10;;;;;;;5.65;5.00;;;28.50;59.10;;;;;;5035845;28;20040;-84
2021/06/15 09:38:00;;;;;;;5.45;4.75;;;28.50;58.40;;;;;;5041856;28;20118;-84
2021/06/15 09:40:30;;;;;;;5.22;4.72;;;28.60;58.20;;;;;;5026817;28;20048;-84
2021/06/15 09:43:09;;;;;;;5.40;4.90;;;28.60;58.30;;;;;;5017231;28;20025;-83
2021/06/15 09:45:40;;;;;;;4.53;3.90;;;28.70;57.20;;;;;;5025189;28;20067;-82
2021/06/15 09:48:22;;;;;;;4.50;4.10;;;28.70;57.80;;;;;;5022478;28;20044;-83
2021/06/15 09:50:59;;;;;;;5.68;4.68;;;28.80;54.50;;;;;;5013022;28;20117;-82
2021/06/15 09:53:37;;;;;;;4.80;4.30;;;28.80;57.30;;;;;;5017723;28;20033;-83
2021/06/15 09:56:05;;;;;;;5.05;4.32;;;28.90;57.10;;;;;;5026466;28;20061;-82
2021/06/15 09:58:55;;;;;;;4.72;4.30;;;28.90;56.30;;;;;;5017443;28;20060;-82
2021/06/15 10:01:42;;;;;;;4.60;4.10;;;28.90;56.10;;;;;;5016944;28;20047;-83
2021/06/15 10:04:20;;;;;;;4.60;4.20;;;29.00;55.30;;;;;;5011442;28;20110;-84
2021/06/15 10:06:53;;;;;;;4.68;4.18;;;29.00;55.30;;;;;;5017699;28;20099;-84
2021/06/15 10:09:32;;;;;;;5.10;4.43;;;29.00;55.10;;;;;;5027531;28;20032;-84
2021/06/15 10:12:08;;;;;;;4.53;4.10;;;29.10;54.00;;;;;;5022840;28;20584;-83
2021/06/15 10:14:39;;;;;;;4.40;4.00;;;29.10;55.10;;;;;;5020842;28;20021;-84
2021/06/15 10:17:05;;;;;;;4.50;3.92;;;29.10;54.90;;;;;;5021414;28;20117;-84
2021/06/15 10:19:31;;;;;;;4.28;3.88;;;29.20;55.20;;;;;;5025553;28;20080;-83
2021/06/15 10:21:59;;;;;;;5.35;4.85;;;29.20;55.10;;;;;;5022957;28;22803;-82
2021/06/15 10:24:26;;;;;;;6.65;4.40;;;29.20;54.80;;;;;;5025910;28;20174;-84
2021/06/15 10:26:53;;;;;;;4.30;3.90;;;29.30;54.30;;;;;;5019694;28;20705;-83
2021/06/15 10:29:20;;;;;;;4.20;3.80;;;29.30;54.40;;;;;;5026707;28;20474;-83
2021/06/15 10:31:49;;;;;;;4.18;3.78;;;29.30;54.40;;;;;;5025339;28;20124;-84
2021/06/15 10:34:34;;;;;;;5.50;3.95;;;29.30;53.80;;;;;;5026428;28;20025;-84
2021/06/15 10:37:00;;;;;;;4.45;4.05;;;29.40;53.90;;;;;;5026330;28;20037;-84
2021/06/15 10:39:40;;;;;;;4.65;4.15;;;29.40;53.20;;;;;;5031392;28;20032;-82
2021/06/15 10:42:24;;;;;;;4.65;3.70;;;29.50;53.10;;;;;;5050907;28;20032;-82
2021/06/15 10:45:12;;;;;;;4.57;4.18;;;29.50;53.20;;;;;;5026904;28;20053;-82
2021/06/15 10:48:01;;;;;;;4.35;3.75;;;29.50;52.80;;;;;;5026089;28;20029;-80
2021/06/15 10:50:47;;;;;;;3.92;3.60;;;29.50;53.10;;;;;;5028037;28;20395;-81
2021/06/15 10:53:14;;;;;;;5.18;3.95;;;29.60;52.60;;;;;;5026998;28;20029;-83
2021/06/15 10:55:50;;;;;;;4.93;3.88;;;29.60;52.40;;;;;;5026805;28;20035;-83
2021/06/15 10:58:42;;;;;;;3.92;3.53;;;29.70;52.50;;;;;;5029684;28;20223;-83
2021/06/15 11:01:29;;;;;;;3.97;3.58;;;29.70;53.00;;;;;;4996827;28;20037;-82
2021/06/15 11:04:12;;;;;;;4.13;3.72;;;29.80;51.60;;;;;;5023501;28;20064;-85
2021/06/15 11:06:49;;;;;;;4.03;3.63;;;29.80;51.80;;;;;;5028342;28;20039;-82
2021/06/15 11:09:19;;;;;;;5.03;3.88;;;29.80;52.70;;;;;;5007586;28;21960;-83
2021/06/15 11:12:12;;;;;;;4.35;3.95;;;29.90;52.80;;;;;;5029154;28;20029;-84
2021/06/15 11:14:38;;;;;;;4.20;3.63;;;29.90;52.50;;;;;;5026961;28;20037;-83
2021/06/15 11:17:08;;;;;;;5.13;4.30;;;29.90;52.50;;;;;;5026452;28;20032;-82
2021/06/15 11:19:38;;;;;;;5.72;4.40;;;30.00;50.90;;;;;;5017501;28;21089;-82
2021/06/15 11:22:07;;;;;;;5.95;3.97;;;29.90;51.80;;;;;;5021524;28;21440;-82
2021/06/15 11:24:40;;;;;;;4.40;4.00;;;29.90;51.40;;;;;;5013490;28;20135;-80
2021/06/15 11:27:19;;;;;;;4.43;3.85;;;29.90;51.70;;;;;;5019162;28;20258;-81
2021/06/15 11:29:47;;;;;;;4.43;3.40;;;29.90;51.40;;;;;;5017014;28;20033;-83
2021/06/15 11:32:20;;;;;;;8.27;3.50;;;29.90;51.80;;;;;;5014364;28;20393;-82
2021/06/15 11:35:02;;;;;;;3.90;3.58;;;29.90;52.30;;;;;;5013342;28;20499;-83
2021/06/15 11:37:37;;;;;;;4.73;3.60;;;30.00;51.80;;;;;;5012516;28;20291;-83
2021/06/15 11:40:09;;;;;;;4.43;3.75;;;30.10;51.50;;;;;;5021653;28;20217;-83
2021/06/15 11:42:35;;;;;;;3.92;3.45;;;30.10;50.60;;;;;;5013104;28;20056;-83
2021/06/15 11:45:02;;;;;;;4.75;3.60;;;30.00;51.20;;;;;;5012948;28;20035;-83
2021/06/15 11:47:35;;;;;;;4.60;4.20;;;30.00;51.30;;;;;;5010870;28;20087;-83
2021/06/15 11:50:16;;;;;;;3.85;3.55;;;30.10;50.70;;;;;;5013328;28;20089;-82
2021/06/15 11:52:47;;;;;;;4.20;3.80;;;30.10;51.00;;;;;;5008028;28;20041;-84
2021/06/15 11:55:13;;;;;;;3.55;3.10;;;30.10;51.50;;;;;;5012356;28;20033;-84
2021/06/15 11:57:39;;;;;;;4.57;3.50;;;30.20;51.90;;;;;;5019028;28;20056;-84
2021/06/15 12:00:18;;;;;;;4.97;3.55;;;30.20;51.50;;;;;;5009593;28;20043;-84
2021/06/15 12:02:45;;;;;;;4.38;3.88;;;30.30;51.30;;;;;;5033039;28;20032;-84
2021/06/15 12:05:17;;;;;;;3.78;3.20;;;30.30;51.30;;;;;;5009853;28;20025;-84
2021/06/15 12:08:01;;;;;;;3.67;3.38;;;30.40;51.60;;;;;;5009878;28;20132;-84
2021/06/15 12:10:27;;;;;;;4.30;3.90;;;30.50;50.70;;;;;;5019630;28;20065;-83
2021/06/15 12:13:17;;;;;;;3.95;3.55;;;30.60;51.30;;;;;;5035923;28;21022;-85
2021/06/15 12:16:04;;;;;;;4.10;3.70;;;30.60;50.90;;;;;;5017738;28;20411;-86
2021/06/15 12:18:47;;;;;;;3.97;3.58;;;30.60;50.00;;;;;;5027677;28;20583;-86
2021/06/15 12:21:27;;;;;;;3.88;3.13;;;30.70;49.90;;;;;;5020808;28;20025;-84
2021/06/15 12:24:03;;;;;;;3.83;3.50;;;30.80;50.70;;;;;;5022272;28;20043;-83
2021/06/15 12:26:40;;;;;;;3.60;3.30;;;31.00;50.40;;;;;;5026894;28;20052;-87
2021/06/15 12:29:10;;;;;;;4.07;3.67;;;31.30;50.70;;;;;;5017195;28;20032;-88
2021/06/15 12:31:44;;;;;;;5.03;3.53;;;31.90;50.40;;;;;;5017807;28;20028;-86
2021/06/15 12:34:16;;;;;;;3.70;3.40;;;32.60;50.00;;;;;;5043687;28;20041;-83
2021/06/15 12:36:45;;;;;;;;;;;33.30;49.70;;;;;;5021122;28;20082;-83
2021/06/15 12:39:15;;;;;;;4.47;3.63;;;34.00;48.10;;;;;;5017238;28;20027;-84
2021/06/15 12:41:45;;;;;;;4.68;3.42;;;34.80;49.30;;;;;;5020525;28;20077;-85
2021/06/15 12:44:11;;;;;;;4.72;3.42;;;35.50;47.70;;;;;;5025036;28;20142;-85
2021/06/15 12:46:39;;;;;;;3.40;3.10;;;35.70;46.30;;;;;;5027597;28;20498;-85
2021/06/15 12:49:18;;;;;;;4.38;3.20;;;35.50;45.70;;;;;;5023983;28;20069;-86
2021/06/15 12:51:47;;;;;;;5.53;3.00;;;35.10;45.50;;;;;;5020708;28;20034;-84
2021/06/15 12:54:23;;;;;;;3.70;2.97;;;34.40;45.40;;;;;;5020801;28;20041;-83
2021/06/15 12:57:18;;;;;;;4.07;2.90;;;33.60;45.80;;;;;;5028960;28;20405;-85
2021/06/15 13:00:04;;;;;;;3.63;2.92;;;32.70;46.70;;;;;;5019172;28;20532;-83
2021/06/15 13:02:30;;;;;;;4.50;3.05;;;32.00;47.80;;;;;;5015820;28;20053;-83
2021/06/15 13:04:58;;;;;;;4.35;3.65;;;31.60;48.70;;;;;;5028932;28;20033;-84
2021/06/15 13:07:26;;;;;;;7.22;3.63;;;31.20;49.50;;;;;;5017457;28;20033;-86